Grand Rapids, MI (49502)

7:23 AM EDT on September 02, 2015 (GMT -0400)
WXGR.NET | | Change Station
CLOSE
Current Station
Personal Weather Station
Location: Grand Rapids, MI
Elevation: 756 ft
Nearby Weather Stations

Elev 756 ft 42.96 °N, 85.63 °W | Updated 2 seconds ago

Partly Cloudy
Partly Cloudy
70.5 °F
Feels Like 70.5 °F
N
0.0
Wind Variable Wind from WSW
Gusts 0.0 mph

Today
High -- | Low -- °F
--% Chance of Precip.
Yesterday
High -- | Low -- °F
Precip. -- in
7:07 AM 8:15 PM
Waning Gibbous, 81% visible
Pressure 30.01 in
Visibility 7.0 miles
Clouds Few 22000 ft
Dew Point 70 °F
Humidity 100%
Rainfall 0.08 in
Snow Depth Not available.
UV 0 out of 12
Pollen 10.40 out of 12
Air Quality Not available.
Flu Activity Not available.
METAR KGRR 021053Z 23006KT 7SM FEW220 23/21 A3002 RMK AO2 SLP161 T02280211
Pressure 30.01 in
Visibility 7.0 miles
Clouds Few 22000 ft
Dew Point 70 °F
Humidity 100%
Rainfall 0.08 in
Snow Depth Not available.
UV 0 out of 12
Pollen 10.40 out of 12
Air Quality Not available.
Flu Activity Not available.
METAR KGRR 021053Z 23006KT 7SM FEW220 23/21 A3002 RMK AO2 SLP161 T02280211

10-Day Weather Forecast

×

Almanac

Astronomy

Sep. 02, 2015 Rise Set
Actual Time
Civil Twilight
Nautical Twilight
Astronomical Twilight
Moon
Length of Visible Light
Length of Day
Tomorrow will be .
, % of the Moon is Illuminated

Today's Extremes

State Highs State Lows

Community

WunderPhotos

Upload Photos

1,851,736 photos uploaded!

WunderBlogs® & News

Nearby

Air Quality

  Air Quality AQ Index Pollutant
Not available.

Snow Depth

Station Depth Elevation

Earthquake Activity

City Distance Mag. Time & Date
Minimum magnitude displayed is 2.5.

Coastal Water Temperatures

Place Temperature

Stations

Nearby Weather Stations

Station Location Temp. Windchill Dew Point Humidity Wind Precip. Elev Updated Type